Mc Kenzie, Tennessee
Current Conditions -  °F | °C
As of 9:35 AM on Saturday 25 Oct 2014 (Local Time) from KPHT Reporting Station
Overcast Overcast  
Wind Chill: 63°   Ceiling: 3600
Heat Index: 63°   Visibility: 10mi
Dew Point: 55°   Wind: 8mph
Humidity: 77%   Direction: 220°SW
Pressure: 30.07"   Gusts: NA
Location:  36.1019°N, 88.5109°W
Report Text: KPHT 251435Z AUTO 22007KT 10SM BKN036 OVC041 17/13 A3007 RMK
Loading
Personal Weather Stations






























Interactive Weather Map
Tropical Storm Tracking
New forecast layout! Learn more

10-Day Weather Forecast

Advertisements
Track Severe Weather on mobile